sensor_id;sensor_type;location;lat;lon;timestamp;pressure;altitude;pressure_sealevel;temperature;humidity
42847;BME280;28495;49.916;14.536;2023-04-28T00:03:44;97070.16;;;8.42;49.44
42847;BME280;28495;49.916;14.536;2023-04-28T00:09:06;97064.72;;;8.22;49.54
42847;BME280;28495;49.916;14.536;2023-04-28T00:14:30;97061.75;;;8.15;49.57
42847;BME280;28495;49.916;14.536;2023-04-28T00:19:51;97061.75;;;8.15;49.97
42847;BME280;28495;49.916;14.536;2023-04-28T00:25:12;97059.28;;;8.14;49.33
42847;BME280;28495;49.916;14.536;2023-04-28T00:30:33;97059.53;;;8.11;49.73
42847;BME280;28495;49.916;14.536;2023-04-28T00:36:00;97047.94;;;8.03;49.79
42847;BME280;28495;49.916;14.536;2023-04-28T00:41:21;97047.84;;;7.93;49.42
42847;BME280;28495;49.916;14.536;2023-04-28T00:46:42;97042.66;;;7.93;49.98
42847;BME280;28495;49.916;14.536;2023-04-28T00:52:05;97031.41;;;8.04;49.84
42847;BME280;28495;49.916;14.536;2023-04-28T00:57:26;97044.97;;;7.97;49.88
42847;BME280;28495;49.916;14.536;2023-04-28T01:02:47;97027.06;;;8.05;50.18
42847;BME280;28495;49.916;14.536;2023-04-28T01:08:08;97022.81;;;7.92;49.80
42847;BME280;28495;49.916;14.536;2023-04-28T01:13:29;97025.19;;;8.07;50.05
42847;BME280;28495;49.916;14.536;2023-04-28T01:18:50;97023.16;;;7.99;50.20
42847;BME280;28495;49.916;14.536;2023-04-28T01:24:12;97019.84;;;7.97;50.08
42847;BME280;28495;49.916;14.536;2023-04-28T01:29:33;97014.88;;;7.94;50.12
42847;BME280;28495;49.916;14.536;2023-04-28T01:34:55;97008.53;;;7.98;50.20
42847;BME280;28495;49.916;14.536;2023-04-28T01:40:16;97018.78;;;7.88;50.31
42847;BME280;28495;49.916;14.536;2023-04-28T01:45:37;97013.09;;;7.72;50.50
42847;BME280;28495;49.916;14.536;2023-04-28T01:50:57;97010.03;;;7.67;50.44
42847;BME280;28495;49.916;14.536;2023-04-28T01:56:19;97014.38;;;7.55;50.75
42847;BME280;28495;49.916;14.536;2023-04-28T02:01:42;97008.56;;;7.40;50.52
42847;BME280;28495;49.916;14.536;2023-04-28T02:07:03;97010.81;;;7.44;51.08
42847;BME280;28495;49.916;14.536;2023-04-28T02:12:24;97005.16;;;7.51;51.08
42847;BME280;28495;49.916;14.536;2023-04-28T02:17:45;97000.56;;;7.66;51.20
42847;BME280;28495;49.916;14.536;2023-04-28T02:23:07;96989.38;;;7.65;51.04
42847;BME280;28495;49.916;14.536;2023-04-28T02:28:28;96991.03;;;7.77;51.50
42847;BME280;28495;49.916;14.536;2023-04-28T02:33:50;96987.72;;;7.87;51.17
42847;BME280;28495;49.916;14.536;2023-04-28T02:39:11;96994.94;;;7.72;51.16
42847;BME280;28495;49.916;14.536;2023-04-28T02:44:32;97014.97;;;7.47;51.06
42847;BME280;28495;49.916;14.536;2023-04-28T02:49:53;97018.50;;;7.46;51.57
42847;BME280;28495;49.916;14.536;2023-04-28T02:55:14;97020.53;;;7.54;51.50
42847;BME280;28495;49.916;14.536;2023-04-28T03:00:44;97017.47;;;7.71;51.50
42847;BME280;28495;49.916;14.536;2023-04-28T03:06:06;97001.91;;;7.94;51.71
42847;BME280;28495;49.916;14.536;2023-04-28T03:11:26;96993.41;;;7.92;51.03
42847;BME280;28495;49.916;14.536;2023-04-28T03:16:47;96988.44;;;7.77;51.52
42847;BME280;28495;49.916;14.536;2023-04-28T03:22:08;96978.53;;;7.71;51.50
42847;BME280;28495;49.916;14.536;2023-04-28T03:27:29;96970.84;;;7.58;51.22
42847;BME280;28495;49.916;14.536;2023-04-28T03:32:50;96973.28;;;7.26;51.19
42847;BME280;28495;49.916;14.536;2023-04-28T03:38:11;96978.53;;;7.13;51.53
42847;BME280;28495;49.916;14.536;2023-04-28T03:43:32;96962.63;;;7.17;51.90
42847;BME280;28495;49.916;14.536;2023-04-28T03:49:23;96965.25;;;7.29;52.14
42847;BME280;28495;49.916;14.536;2023-04-28T03:54:44;96959.69;;;7.22;51.91
42847;BME280;28495;49.916;14.536;2023-04-28T04:00:06;96960.41;;;7.24;52.08
42847;BME280;28495;49.916;14.536;2023-04-28T04:05:34;96959.91;;;7.19;51.82
42847;BME280;28495;49.916;14.536;2023-04-28T04:10:55;96962.72;;;7.05;51.79
42847;BME280;28495;49.916;14.536;2023-04-28T04:16:16;96970.28;;;6.83;51.95
42847;BME280;28495;49.916;14.536;2023-04-28T04:21:37;96966.78;;;6.84;52.44
42847;BME280;28495;49.916;14.536;2023-04-28T04:26:58;96958.81;;;6.99;52.63
42847;BME280;28495;49.916;14.536;2023-04-28T04:32:31;96955.78;;;7.16;53.01
42847;BME280;28495;49.916;14.536;2023-04-28T04:37:52;96962.84;;;7.14;52.94
42847;BME280;28495;49.916;14.536;2023-04-28T04:43:13;96964.38;;;7.06;52.86
42847;BME280;28495;49.916;14.536;2023-04-28T04:48:40;96966.25;;;7.04;52.85
42847;BME280;28495;49.916;14.536;2023-04-28T04:54:01;96957.28;;;6.96;52.77
42847;BME280;28495;49.916;14.536;2023-04-28T04:59:22;96967.31;;;7.01;53.02
42847;BME280;28495;49.916;14.536;2023-04-28T05:04:53;96961.31;;;7.00;53.37
42847;BME280;28495;49.916;14.536;2023-04-28T05:10:25;96947.78;;;7.20;53.81
42847;BME280;28495;49.916;14.536;2023-04-28T05:15:49;96952.63;;;7.36;53.43
42847;BME280;28495;49.916;14.536;2023-04-28T05:21:36;96942.03;;;7.39;53.61
42847;BME280;28495;49.916;14.536;2023-04-28T05:26:58;96940.66;;;7.46;53.50
42847;BME280;28495;49.916;14.536;2023-04-28T05:32:18;96937.69;;;7.39;53.57
42847;BME280;28495;49.916;14.536;2023-04-28T05:37:39;96937.22;;;7.45;54.48
42847;BME280;28495;49.916;14.536;2023-04-28T05:43:03;96931.19;;;7.79;54.99
42847;BME280;28495;49.916;14.536;2023-04-28T05:48:24;96925.78;;;7.71;53.83
42847;BME280;28495;49.916;14.536;2023-04-28T05:53:45;96924.97;;;7.70;53.65
42847;BME280;28495;49.916;14.536;2023-04-28T05:59:08;96932.97;;;8.01;54.40
42847;BME280;28495;49.916;14.536;2023-04-28T06:04:30;96926.22;;;8.10;53.65
42847;BME280;28495;49.916;14.536;2023-04-28T06:09:51;96911.22;;;8.14;53.57
42847;BME280;28495;49.916;14.536;2023-04-28T06:15:12;96896.00;;;8.53;53.71
42847;BME280;28495;49.916;14.536;2023-04-28T06:20:34;96908.94;;;8.76;54.30
42847;BME280;28495;49.916;14.536;2023-04-28T06:25:56;96910.91;;;9.26;53.28
42847;BME280;28495;49.916;14.536;2023-04-28T06:31:17;96899.00;;;9.64;53.72
42847;BME280;28495;49.916;14.536;2023-04-28T06:36:37;96898.28;;;9.93;53.18
42847;BME280;28495;49.916;14.536;2023-04-28T06:41:58;96894.50;;;10.17;52.74
42847;BME280;28495;49.916;14.536;2023-04-28T06:47:22;96884.69;;;10.40;52.78
42847;BME280;28495;49.916;14.536;2023-04-28T06:52:43;96879.19;;;10.53;52.98
42847;BME280;28495;49.916;14.536;2023-04-28T06:58:03;96885.47;;;11.00;52.42
42847;BME280;28495;49.916;14.536;2023-04-28T07:03:26;96872.22;;;11.31;52.21
42847;BME280;28495;49.916;14.536;2023-04-28T07:08:47;96879.47;;;11.47;51.76
42847;BME280;28495;49.916;14.536;2023-04-28T07:14:08;96853.63;;;11.71;51.68
42847;BME280;28495;49.916;14.536;2023-04-28T07:19:28;96860.94;;;11.68;51.44
42847;BME280;28495;49.916;14.536;2023-04-28T07:24:50;96852.69;;;11.72;51.16
42847;BME280;28495;49.916;14.536;2023-04-28T07:30:11;96845.00;;;11.71;51.11
42847;BME280;28495;49.916;14.536;2023-04-28T07:35:47;96842.63;;;11.78;51.25
42847;BME280;28495;49.916;14.536;2023-04-28T07:41:09;96846.88;;;12.07;51.42
42847;BME280;28495;49.916;14.536;2023-04-28T07:46:31;96843.88;;;12.19;51.23
42847;BME280;28495;49.916;14.536;2023-04-28T07:51:52;96835.91;;;12.39;51.04
42847;BME280;28495;49.916;14.536;2023-04-28T07:57:14;96836.44;;;12.61;51.30
42847;BME280;28495;49.916;14.536;2023-04-28T08:02:35;96839.69;;;12.81;51.21
42847;BME280;28495;49.916;14.536;2023-04-28T08:07:56;96837.97;;;12.98;50.97
42847;BME280;28495;49.916;14.536;2023-04-28T08:13:18;96832.66;;;13.08;50.68
42847;BME280;28495;49.916;14.536;2023-04-28T08:18:39;96822.38;;;13.15;50.54
42847;BME280;28495;49.916;14.536;2023-04-28T08:24:00;96812.06;;;13.13;50.40
42847;BME280;28495;49.916;14.536;2023-04-28T08:29:21;96805.69;;;13.16;49.83
42847;BME280;28495;49.916;14.536;2023-04-28T08:34:42;96800.16;;;13.19;50.00
42847;BME280;28495;49.916;14.536;2023-04-28T08:40:03;96803.06;;;13.16;49.38
42847;BME280;28495;49.916;14.536;2023-04-28T08:45:29;96794.81;;;13.29;49.73
42847;BME280;28495;49.916;14.536;2023-04-28T08:50:53;96790.97;;;13.41;49.67
42847;BME280;28495;49.916;14.536;2023-04-28T08:56:15;96785.91;;;13.56;49.80
42847;BME280;28495;49.916;14.536;2023-04-28T09:01:38;96788.31;;;13.84;49.88
42847;BME280;28495;49.916;14.536;2023-04-28T09:06:59;96785.88;;;13.99;49.26
42847;BME280;28495;49.916;14.536;2023-04-28T09:12:20;96776.06;;;14.09;49.43
42847;BME280;28495;49.916;14.536;2023-04-28T09:17:48;96767.88;;;14.29;49.35
42847;BME280;28495;49.916;14.536;2023-04-28T09:23:20;96766.25;;;14.44;48.63
42847;BME280;28495;49.916;14.536;2023-04-28T09:28:41;96741.00;;;14.52;48.46
42847;BME280;28495;49.916;14.536;2023-04-28T09:34:02;96751.66;;;14.58;48.05
42847;BME280;28495;49.916;14.536;2023-04-28T09:39:29;96752.13;;;14.70;48.16
42847;BME280;28495;49.916;14.536;2023-04-28T09:44:53;96747.53;;;14.81;47.85
42847;BME280;28495;49.916;14.536;2023-04-28T09:50:15;96750.63;;;14.76;47.30
42847;BME280;28495;49.916;14.536;2023-04-28T09:55:40;96737.88;;;14.73;47.46
42847;BME280;28495;49.916;14.536;2023-04-28T10:01:04;96730.09;;;14.88;47.52
42847;BME280;28495;49.916;14.536;2023-04-28T10:06:27;96741.22;;;14.98;47.28
42847;BME280;28495;49.916;14.536;2023-04-28T10:11:49;96729.78;;;14.91;46.65
42847;BME280;28495;49.916;14.536;2023-04-28T10:17:12;96719.78;;;14.78;46.77
42847;BME280;28495;49.916;14.536;2023-04-28T10:28:19;96720.00;;;14.52;46.67
42847;BME280;28495;49.916;14.536;2023-04-28T10:33:40;96721.31;;;14.39;46.29
42847;BME280;28495;49.916;14.536;2023-04-28T10:39:09;96705.09;;;14.27;46.47
42847;BME280;28495;49.916;14.536;2023-04-28T10:55:33;96694.78;;;14.17;46.52
42847;BME280;28495;49.916;14.536;2023-04-28T11:12:05;96700.34;;;14.06;46.71
42847;BME280;28495;49.916;14.536;2023-04-28T11:17:40;96711.97;;;14.03;46.71
42847;BME280;28495;49.916;14.536;2023-04-28T11:23:03;96711.47;;;14.08;46.73
42847;BME280;28495;49.916;14.536;2023-04-28T11:28:24;96714.44;;;14.05;46.82
42847;BME280;28495;49.916;14.536;2023-04-28T11:33:51;96710.34;;;13.94;46.79
42847;BME280;28495;49.916;14.536;2023-04-28T11:39:12;96719.16;;;13.85;46.97
42847;BME280;28495;49.916;14.536;2023-04-28T11:44:34;96721.16;;;13.83;47.20
42847;BME280;28495;49.916;14.536;2023-04-28T11:49:55;96716.53;;;13.77;47.26
42847;BME280;28495;49.916;14.536;2023-04-28T11:55:16;96716.53;;;13.68;48.34
42847;BME280;28495;49.916;14.536;2023-04-28T12:00:37;96727.66;;;13.70;48.80
42847;BME280;28495;49.916;14.536;2023-04-28T12:05:58;96741.41;;;13.72;49.24
42847;BME280;28495;49.916;14.536;2023-04-28T12:11:18;96738.94;;;13.63;49.41
42847;BME280;28495;49.916;14.536;2023-04-28T12:16:42;96745.94;;;13.54;49.71
42847;BME280;28495;49.916;14.536;2023-04-28T12:22:05;96746.44;;;13.41;50.79
42847;BME280;28495;49.916;14.536;2023-04-28T12:27:27;96751.75;;;13.31;51.54
42847;BME280;28495;49.916;14.536;2023-04-28T12:32:48;96751.38;;;13.18;52.17
42847;BME280;28495;49.916;14.536;2023-04-28T12:38:10;96752.03;;;13.20;52.63
42847;BME280;28495;49.916;14.536;2023-04-28T12:43:31;96749.44;;;13.28;53.38
42847;BME280;28495;49.916;14.536;2023-04-28T12:48:53;96748.47;;;13.29;53.40
42847;BME280;28495;49.916;14.536;2023-04-28T12:54:13;96737.78;;;13.14;53.30
42847;BME280;28495;49.916;14.536;2023-04-28T12:59:35;96738.56;;;13.06;53.68
42847;BME280;28495;49.916;14.536;2023-04-28T13:04:56;96729.66;;;12.91;53.83
42847;BME280;28495;49.916;14.536;2023-04-28T13:10:17;96729.91;;;12.79;54.29
42847;BME280;28495;49.916;14.536;2023-04-28T13:15:39;96720.22;;;12.72;55.01
42847;BME280;28495;49.916;14.536;2023-04-28T13:21:00;96722.78;;;12.63;55.00
42847;BME280;28495;49.916;14.536;2023-04-28T13:26:22;96714.44;;;12.60;56.08
42847;BME280;28495;49.916;14.536;2023-04-28T13:31:46;96710.88;;;12.69;56.38
42847;BME280;28495;49.916;14.536;2023-04-28T13:37:06;96710.06;;;12.69;56.95
42847;BME280;28495;49.916;14.536;2023-04-28T13:42:27;96725.03;;;12.58;57.38
42847;BME280;28495;49.916;14.536;2023-04-28T13:47:48;96716.72;;;12.63;57.70
42847;BME280;28495;49.916;14.536;2023-04-28T13:53:10;96711.66;;;12.61;57.80
42847;BME280;28495;49.916;14.536;2023-04-28T13:58:31;96710.38;;;12.65;57.98
42847;BME280;28495;49.916;14.536;2023-04-28T14:03:52;96710.31;;;12.57;57.69
42847;BME280;28495;49.916;14.536;2023-04-28T14:09:13;96697.88;;;12.77;60.30
42847;BME280;28495;49.916;14.536;2023-04-28T14:14:34;96692.09;;;13.08;57.74
42847;BME280;28495;49.916;14.536;2023-04-28T14:20:00;96689.06;;;12.87;57.35
42847;BME280;28495;49.916;14.536;2023-04-28T14:25:21;96673.63;;;12.75;58.21
42847;BME280;28495;49.916;14.536;2023-04-28T14:30:42;96675.78;;;12.80;58.60
42847;BME280;28495;49.916;14.536;2023-04-28T14:36:03;96669.53;;;12.73;58.52
42847;BME280;28495;49.916;14.536;2023-04-28T14:41:24;96665.41;;;12.62;58.65
42847;BME280;28495;49.916;14.536;2023-04-28T14:46:45;96661.84;;;12.45;58.48
42847;BME280;28495;49.916;14.536;2023-04-28T14:52:07;96654.06;;;12.27;58.70
42847;BME280;28495;49.916;14.536;2023-04-28T14:57:28;96654.63;;;12.12;59.02
42847;BME280;28495;49.916;14.536;2023-04-28T15:02:49;96655.22;;;12.06;59.14
42847;BME280;28495;49.916;14.536;2023-04-28T15:08:10;96646.88;;;12.02;59.40
42847;BME280;28495;49.916;14.536;2023-04-28T15:13:31;96629.25;;;12.04;59.71
42847;BME280;28495;49.916;14.536;2023-04-28T15:18:52;96625.66;;;12.06;60.23
42847;BME280;28495;49.916;14.536;2023-04-28T15:24:14;96628.59;;;12.02;60.18
42847;BME280;28495;49.916;14.536;2023-04-28T15:29:35;96623.78;;;11.98;60.51
42847;BME280;28495;49.916;14.536;2023-04-28T15:34:56;96619.31;;;11.90;60.85
42847;BME280;28495;49.916;14.536;2023-04-28T15:40:18;96610.22;;;11.76;60.86
42847;BME280;28495;49.916;14.536;2023-04-28T15:45:39;96608.53;;;11.67;61.03
42847;BME280;28495;49.916;14.536;2023-04-28T15:51:00;96606.28;;;11.54;60.93
42847;BME280;28495;49.916;14.536;2023-04-28T15:56:21;96609.19;;;11.51;61.11
42847;BME280;28495;49.916;14.536;2023-04-28T16:01:43;96610.50;;;11.47;61.54
42847;BME280;28495;49.916;14.536;2023-04-28T16:07:04;96594.28;;;11.43;61.66
42847;BME280;28495;49.916;14.536;2023-04-28T16:12:25;96602.78;;;11.45;62.00
42847;BME280;28495;49.916;14.536;2023-04-28T16:17:46;96599.50;;;11.43;62.01
42847;BME280;28495;49.916;14.536;2023-04-28T16:23:08;96590.34;;;11.39;62.40
42847;BME280;28495;49.916;14.536;2023-04-28T16:28:34;96581.16;;;11.35;62.20
42847;BME280;28495;49.916;14.536;2023-04-28T16:33:55;96579.75;;;11.22;62.40
42847;BME280;28495;49.916;14.536;2023-04-28T16:39:15;96567.50;;;11.23;62.50
42847;BME280;28495;49.916;14.536;2023-04-28T16:44:40;96562.16;;;11.24;62.48
42847;BME280;28495;49.916;14.536;2023-04-28T16:50:01;96561.47;;;11.22;62.59
42847;BME280;28495;49.916;14.536;2023-04-28T16:55:22;96565.19;;;11.20;62.70
42847;BME280;28495;49.916;14.536;2023-04-28T17:00:43;96565.19;;;11.20;62.52
42847;BME280;28495;49.916;14.536;2023-04-28T17:06:03;96551.91;;;11.13;62.79
42847;BME280;28495;49.916;14.536;2023-04-28T17:11:24;96551.41;;;11.09;62.72
42847;BME280;28495;49.916;14.536;2023-04-28T17:16:45;96554.63;;;11.03;62.89
42847;BME280;28495;49.916;14.536;2023-04-28T17:22:06;96550.50;;;11.01;62.97
42847;BME280;28495;49.916;14.536;2023-04-28T17:27:27;96543.63;;;11.00;62.89
42847;BME280;28495;49.916;14.536;2023-04-28T17:32:48;96533.38;;;10.98;63.05
42847;BME280;28495;49.916;14.536;2023-04-28T17:38:09;96534.34;;;10.97;62.84
42847;BME280;28495;49.916;14.536;2023-04-28T17:43:30;96538.19;;;10.93;63.09
42847;BME280;28495;49.916;14.536;2023-04-28T17:48:51;96537.97;;;10.86;63.31
42847;BME280;28495;49.916;14.536;2023-04-28T17:54:12;96526.34;;;10.80;63.36
42847;BME280;28495;49.916;14.536;2023-04-28T17:59:32;96527.97;;;10.81;63.26
42847;BME280;28495;49.916;14.536;2023-04-28T18:04:54;96533.19;;;10.81;63.58
42847;BME280;28495;49.916;14.536;2023-04-28T18:10:15;96524.19;;;10.76;63.35
42847;BME280;28495;49.916;14.536;2023-04-28T18:15:36;96522.53;;;10.75;63.78
42847;BME280;28495;49.916;14.536;2023-04-28T18:20:58;96520.50;;;10.68;63.54
42847;BME280;28495;49.916;14.536;2023-04-28T18:26:19;96524.25;;;10.66;63.76
42847;BME280;28495;49.916;14.536;2023-04-28T18:31:42;96532.22;;;10.64;64.02
42847;BME280;28495;49.916;14.536;2023-04-28T18:37:03;96536.16;;;10.68;63.66
42847;BME280;28495;49.916;14.536;2023-04-28T18:42:23;96538.34;;;10.73;63.58
42847;BME280;28495;49.916;14.536;2023-04-28T18:47:46;96529.22;;;10.77;63.87
42847;BME280;28495;49.916;14.536;2023-04-28T18:53:08;96526.91;;;10.74;63.59
42847;BME280;28495;49.916;14.536;2023-04-28T18:58:30;96519.41;;;10.71;63.86
42847;BME280;28495;49.916;14.536;2023-04-28T19:03:51;96539.59;;;10.69;64.09
42847;BME280;28495;49.916;14.536;2023-04-28T19:09:12;96535.34;;;10.68;64.01
42847;BME280;28495;49.916;14.536;2023-04-28T19:14:33;96529.69;;;10.73;64.03
42847;BME280;28495;49.916;14.536;2023-04-28T19:19:56;96520.09;;;10.73;64.09
42847;BME280;28495;49.916;14.536;2023-04-28T19:25:17;96528.72;;;10.74;64.20
42847;BME280;28495;49.916;14.536;2023-04-28T19:30:38;96537.78;;;10.70;64.28
42847;BME280;28495;49.916;14.536;2023-04-28T19:35:59;96536.03;;;10.70;64.20
42847;BME280;28495;49.916;14.536;2023-04-28T19:41:19;96536.16;;;10.68;64.34
42847;BME280;28495;49.916;14.536;2023-04-28T19:46:40;96517.38;;;10.65;64.20
42847;BME280;28495;49.916;14.536;2023-04-28T19:52:03;96521.09;;;10.62;64.20
42847;BME280;28495;49.916;14.536;2023-04-28T19:57:27;96529.75;;;10.63;64.13
42847;BME280;28495;49.916;14.536;2023-04-28T20:02:48;96538.41;;;10.63;64.27
42847;BME280;28495;49.916;14.536;2023-04-28T20:08:10;96541.13;;;10.62;64.36
42847;BME280;28495;49.916;14.536;2023-04-28T20:13:32;96541.13;;;10.62;64.66
42847;BME280;28495;49.916;14.536;2023-04-28T20:18:54;96540.56;;;10.68;64.49
42847;BME280;28495;49.916;14.536;2023-04-28T20:24:15;96545.16;;;10.74;64.69
42847;BME280;28495;49.916;14.536;2023-04-28T20:29:36;96540.34;;;10.79;64.87
42847;BME280;28495;49.916;14.536;2023-04-28T20:34:57;96540.28;;;10.89;64.71
42847;BME280;28495;49.916;14.536;2023-04-28T20:40:18;96534.25;;;10.89;64.82
42847;BME280;28495;49.916;14.536;2023-04-28T20:45:39;96533.59;;;10.87;64.69
42847;BME280;28495;49.916;14.536;2023-04-28T20:51:01;96534.09;;;10.90;64.78
42847;BME280;28495;49.916;14.536;2023-04-28T20:56:23;96531.50;;;10.90;64.96
42847;BME280;28495;49.916;14.536;2023-04-28T21:01:44;96535.31;;;10.96;65.07
42847;BME280;28495;49.916;14.536;2023-04-28T21:07:05;96527.03;;;11.01;64.94
42847;BME280;28495;49.916;14.536;2023-04-28T21:12:26;96525.75;;;11.05;64.89
42847;BME280;28495;49.916;14.536;2023-04-28T21:17:47;96529.56;;;11.10;65.20
42847;BME280;28495;49.916;14.536;2023-04-28T21:23:08;96523.97;;;11.05;64.88
42847;BME280;28495;49.916;14.536;2023-04-28T21:28:29;96513.22;;;10.90;65.02
42847;BME280;28495;49.916;14.536;2023-04-28T21:33:53;96512.84;;;10.85;65.28
42847;BME280;28495;49.916;14.536;2023-04-28T21:39:14;96512.56;;;10.88;65.22
42847;BME280;28495;49.916;14.536;2023-04-28T21:44:35;96503.59;;;10.91;65.28
42847;BME280;28495;49.916;14.536;2023-04-28T21:49:57;96497.88;;;10.87;65.47
42847;BME280;28495;49.916;14.536;2023-04-28T21:55:18;96504.50;;;10.81;65.29
42847;BME280;28495;49.916;14.536;2023-04-28T22:00:41;96504.00;;;10.78;65.67
42847;BME280;28495;49.916;14.536;2023-04-28T22:06:02;96504.28;;;10.75;65.76
42847;BME280;28495;49.916;14.536;2023-04-28T22:11:23;96520.91;;;10.74;65.88
42847;BME280;28495;49.916;14.536;2023-04-28T22:16:44;96521.41;;;10.77;65.97
42847;BME280;28495;49.916;14.536;2023-04-28T22:22:05;96518.81;;;10.77;65.88
42847;BME280;28495;49.916;14.536;2023-04-28T22:27:26;96516.06;;;10.79;66.17
42847;BME280;28495;49.916;14.536;2023-04-28T22:32:47;96508.09;;;10.80;66.11
42847;BME280;28495;49.916;14.536;2023-04-28T22:38:08;96499.97;;;10.83;66.30
42847;BME280;28495;49.916;14.536;2023-04-28T22:43:29;96505.19;;;10.83;66.46
42847;BME280;28495;49.916;14.536;2023-04-28T22:48:50;96502.88;;;10.80;66.10
42847;BME280;28495;49.916;14.536;2023-04-28T22:54:11;96498.31;;;10.82;66.50
42847;BME280;28495;49.916;14.536;2023-04-28T22:59:32;96491.16;;;10.85;66.34
42847;BME280;28495;49.916;14.536;2023-04-28T23:04:53;96497.28;;;10.93;66.59
42847;BME280;28495;49.916;14.536;2023-04-28T23:10:13;96495.25;;;10.87;66.11
42847;BME280;28495;49.916;14.536;2023-04-28T23:15:35;96505.56;;;10.89;66.31
42847;BME280;28495;49.916;14.536;2023-04-28T23:20:56;96491.69;;;10.88;66.38
42847;BME280;28495;49.916;14.536;2023-04-28T23:26:17;96487.88;;;10.82;66.47
42847;BME280;28495;49.916;14.536;2023-04-28T23:31:37;96478.88;;;10.77;66.63
42847;BME280;28495;49.916;14.536;2023-04-28T23:36:59;96458.88;;;10.67;66.77
42847;BME280;28495;49.916;14.536;2023-04-28T23:42:20;96458.81;;;10.77;66.73
42847;BME280;28495;49.916;14.536;2023-04-28T23:47:41;96439.88;;;10.75;66.99
42847;BME280;28495;49.916;14.536;2023-04-28T23:53:02;96442.06;;;10.80;66.92
42847;BME280;28495;49.916;14.536;2023-04-28T23:58:23;96448.19;;;10.89;67.37
